createdAt,value
2023-05-10T00:01:53.290Z,11.45
2023-05-10T00:04:20.552Z,11.73
2023-05-10T00:06:47.721Z,12.80
2023-05-10T00:09:15.151Z,11.07
2023-05-10T00:11:42.182Z,10.90
2023-05-10T00:14:09.284Z,11.43
2023-05-10T00:16:36.562Z,11.05
2023-05-10T00:19:03.957Z,10.82
2023-05-10T00:21:31.119Z,10.55
2023-05-10T00:23:58.251Z,10.63
2023-05-10T00:26:25.282Z,10.02
2023-05-10T00:28:55.919Z,9.90
2023-05-10T00:31:23.350Z,9.15
2023-05-10T00:33:51.235Z,9.40
2023-05-10T00:36:18.328Z,9.40
2023-05-10T00:38:45.382Z,9.10
2023-05-10T00:41:12.477Z,9.23
2023-05-10T00:43:40.802Z,9.55
2023-05-10T00:46:08.756Z,9.20
2023-05-10T00:48:36.161Z,9.23
2023-05-10T00:51:04.630Z,9.10
2023-05-10T00:53:33.852Z,9.18
2023-05-10T00:56:01.474Z,9.43
2023-05-10T00:58:29.752Z,10.30
2023-05-10T01:00:58.116Z,9.88
2023-05-10T01:03:26.419Z,9.68
2023-05-10T01:05:53.825Z,9.75
2023-05-10T01:08:21.280Z,10.13
2023-05-10T01:10:50.157Z,9.95
2023-05-10T01:13:34.987Z,10.18
2023-05-10T01:16:04.171Z,10.65
2023-05-10T01:18:42.291Z,9.35
2023-05-10T01:22:04.765Z,10.00
2023-05-10T01:25:35.941Z,9.73
2023-05-10T01:28:42.515Z,9.52
2023-05-10T01:31:28.396Z,10.10
2023-05-10T01:34:08.721Z,8.80
2023-05-10T01:36:51.308Z,9.48
2023-05-10T01:39:46.093Z,8.98
2023-05-10T01:42:27.243Z,8.73
2023-05-10T01:45:21.180Z,8.88
2023-05-10T01:47:56.870Z,8.60
2023-05-10T01:50:29.632Z,9.05
2023-05-10T01:52:59.664Z,9.13
2023-05-10T01:55:31.846Z,8.90
2023-05-10T01:58:07.643Z,9.25
2023-05-10T02:00:36.629Z,9.10
2023-05-10T02:03:07.922Z,8.30
2023-05-10T02:05:36.425Z,8.52
2023-05-10T02:08:07.158Z,8.80
2023-05-10T02:10:36.345Z,8.45
2023-05-10T02:13:04.568Z,8.80
2023-05-10T02:15:33.273Z,8.82
2023-05-10T02:18:01.989Z,8.20
2023-05-10T02:20:30.764Z,8.70
2023-05-10T02:22:58.741Z,8.43
2023-05-10T02:25:27.401Z,8.57
2023-05-10T02:27:58.175Z,8.18
2023-05-10T02:30:26.117Z,8.60
2023-05-10T02:32:54.086Z,8.85
2023-05-10T02:35:22.033Z,8.27
2023-05-10T02:37:49.859Z,8.05
2023-05-10T02:40:18.804Z,8.48
2023-05-10T02:42:48.759Z,8.73
2023-05-10T02:45:21.656Z,8.63
2023-05-10T02:47:49.811Z,8.05
2023-05-10T02:50:17.211Z,8.52
2023-05-10T02:52:49.093Z,8.50
2023-05-10T02:55:17.912Z,8.57
2023-05-10T02:58:02.008Z,8.50
2023-05-10T03:00:29.917Z,8.65
2023-05-10T03:02:57.262Z,8.05
2023-05-10T03:05:24.888Z,8.02
2023-05-10T03:07:53.104Z,7.95
2023-05-10T03:10:28.412Z,7.80
2023-05-10T03:13:12.115Z,8.13
2023-05-10T03:15:59.154Z,8.05
2023-05-10T03:19:02.695Z,7.60
2023-05-10T03:21:31.248Z,7.70
2023-05-10T03:24:08.457Z,7.20
2023-05-10T03:26:38.304Z,7.00
2023-05-10T03:29:15.012Z,7.10
2023-05-10T03:31:42.467Z,6.40
2023-05-10T03:34:09.580Z,6.60
2023-05-10T03:36:37.073Z,6.80
2023-05-10T03:39:04.152Z,6.82
2023-05-10T03:41:31.690Z,6.60
2023-05-10T03:43:58.864Z,6.75
2023-05-10T03:46:26.058Z,6.50
2023-05-10T03:48:53.414Z,6.93
2023-05-10T03:51:20.483Z,6.43
2023-05-10T03:53:47.477Z,6.30
2023-05-10T03:56:14.595Z,6.78
2023-05-10T03:58:41.610Z,7.18
2023-05-10T04:01:08.534Z,6.85
2023-05-10T04:03:37.380Z,7.47
2023-05-10T04:06:06.363Z,7.43
2023-05-10T04:08:33.707Z,7.13
2023-05-10T04:11:09.129Z,7.22
2023-05-10T04:13:36.521Z,7.88
2023-05-10T04:16:03.974Z,7.13
2023-05-10T04:18:31.637Z,7.80
2023-05-10T04:20:58.831Z,7.57
2023-05-10T04:23:25.804Z,7.70
2023-05-10T04:25:52.793Z,7.50
2023-05-10T04:28:20.172Z,7.70
2023-05-10T04:30:47.399Z,7.13
2023-05-10T04:33:15.317Z,7.90
2023-05-10T04:35:42.605Z,7.50
2023-05-10T04:38:09.673Z,7.15
2023-05-10T04:40:36.850Z,7.60
2023-05-10T04:43:03.943Z,7.47
2023-05-10T04:45:31.122Z,7.53
2023-05-10T04:47:58.140Z,8.18
2023-05-10T04:50:25.175Z,7.80
2023-05-10T04:52:53.291Z,8.02
2023-05-10T04:55:20.430Z,7.68
2023-05-10T04:57:47.400Z,7.93
2023-05-10T05:00:15.412Z,7.85
2023-05-10T05:02:46.629Z,8.05
2023-05-10T05:05:14.340Z,7.88
2023-05-10T05:07:41.762Z,7.45
2023-05-10T05:10:09.758Z,7.57
2023-05-10T05:12:36.807Z,8.00
2023-05-10T05:15:04.312Z,7.28
2023-05-10T05:17:32.573Z,7.78
2023-05-10T05:19:59.793Z,7.68
2023-05-10T05:22:29.665Z,7.30
2023-05-10T05:24:59.121Z,6.82
2023-05-10T05:27:28.721Z,6.75
2023-05-10T05:29:57.284Z,6.53
2023-05-10T05:32:25.478Z,7.20
2023-05-10T05:34:53.035Z,6.60
2023-05-10T05:37:25.511Z,7.13
2023-05-10T05:39:52.626Z,7.03
2023-05-10T05:42:19.866Z,7.10
2023-05-10T05:44:47.002Z,6.65
2023-05-10T05:47:14.132Z,6.85
2023-05-10T05:49:41.237Z,6.60
2023-05-10T05:52:08.206Z,6.10
2023-05-10T05:54:35.328Z,7.03
2023-05-10T05:57:02.408Z,7.13
2023-05-10T05:59:29.715Z,7.75
2023-05-10T06:01:56.907Z,7.38
2023-05-10T06:04:24.048Z,7.95
2023-05-10T06:06:51.054Z,7.88
2023-05-10T06:09:18.239Z,7.93
2023-05-10T06:11:45.386Z,8.07
2023-05-10T06:14:12.563Z,8.07
2023-05-10T06:16:39.695Z,8.07
2023-05-10T06:19:06.887Z,7.15
2023-05-10T06:21:33.958Z,7.32
2023-05-10T06:24:00.870Z,8.07
2023-05-10T06:26:28.083Z,6.60
2023-05-10T06:28:55.114Z,6.30
2023-05-10T06:31:22.294Z,7.30
2023-05-10T06:33:49.316Z,6.50
2023-05-10T06:36:16.539Z,6.68
2023-05-10T06:38:43.773Z,6.30
2023-05-10T06:41:10.844Z,6.30
2023-05-10T06:43:40.951Z,6.80
2023-05-10T06:46:08.546Z,6.65
2023-05-10T06:48:35.781Z,6.47
2023-05-10T06:51:02.830Z,6.00
2023-05-10T06:53:29.911Z,5.85
2023-05-10T06:55:57.144Z,5.72
2023-05-10T06:58:24.365Z,6.10
2023-05-10T07:00:51.575Z,6.13
2023-05-10T07:03:18.928Z,6.38
2023-05-10T07:05:46.102Z,6.60
2023-05-10T07:08:14.397Z,6.65
2023-05-10T07:10:41.427Z,5.90
2023-05-10T07:13:08.711Z,6.00
2023-05-10T07:15:35.947Z,6.38
2023-05-10T07:18:03.284Z,6.00
2023-05-10T07:20:30.400Z,6.28
2023-05-10T07:22:57.446Z,6.03
2023-05-10T07:25:25.119Z,6.50
2023-05-10T07:27:52.288Z,6.13
2023-05-10T07:30:19.700Z,6.70
2023-05-10T07:32:46.879Z,6.53
2023-05-10T07:35:14.062Z,6.70
2023-05-10T07:37:41.354Z,6.72
2023-05-10T07:40:09.357Z,6.10
2023-05-10T07:42:36.366Z,6.03
2023-05-10T07:45:03.421Z,6.38
2023-05-10T07:47:30.499Z,5.60
2023-05-10T07:49:57.677Z,5.03
2023-05-10T07:52:24.769Z,5.55
2023-05-10T07:54:51.768Z,5.15
2023-05-10T07:57:19.331Z,5.35
2023-05-10T07:59:46.635Z,5.35
2023-05-10T08:02:13.706Z,5.40
2023-05-10T08:04:41.086Z,5.47
2023-05-10T08:07:08.307Z,5.20
2023-05-10T08:09:35.439Z,5.50
2023-05-10T08:12:02.741Z,4.72
2023-05-10T08:14:30.850Z,4.70
2023-05-10T08:16:57.896Z,4.70
2023-05-10T08:19:25.024Z,3.55
2023-05-10T08:21:52.351Z,3.65
2023-05-10T08:24:19.486Z,3.20
2023-05-10T08:26:46.543Z,2.92
2023-05-10T08:29:13.777Z,3.00
2023-05-10T08:31:40.990Z,3.40
2023-05-10T08:34:08.254Z,3.22
2023-05-10T08:36:35.207Z,3.22
2023-05-10T08:39:02.279Z,3.10
2023-05-10T08:41:31.189Z,3.17
2023-05-10T08:43:58.808Z,4.70
2023-05-10T08:46:27.809Z,4.85
2023-05-10T08:48:55.726Z,5.35
2023-05-10T08:51:28.128Z,5.80
2023-05-10T08:53:55.883Z,5.50
2023-05-10T08:56:23.134Z,5.47
2023-05-10T08:58:50.714Z,5.80
2023-05-10T09:01:19.380Z,6.03
2023-05-10T09:03:48.937Z,5.30
2023-05-10T09:06:16.773Z,5.50
2023-05-10T09:08:44.326Z,5.57
2023-05-10T09:11:13.043Z,5.93
2023-05-10T09:13:40.624Z,5.15
2023-05-10T09:16:20.270Z,4.80
2023-05-10T09:18:48.124Z,4.40
2023-05-10T09:21:15.372Z,5.07
2023-05-10T09:23:48.683Z,6.13
2023-05-10T09:26:16.398Z,5.50
2023-05-10T09:28:54.436Z,6.40
2023-05-10T09:31:21.712Z,8.15
2023-05-10T09:33:50.627Z,8.40
2023-05-10T09:36:18.383Z,8.80
2023-05-10T09:38:52.857Z,8.98
2023-05-10T09:41:22.504Z,9.55
2023-05-10T09:43:50.513Z,9.02
2023-05-10T09:46:18.000Z,10.15
2023-05-10T09:48:48.491Z,9.55
2023-05-10T09:51:27.821Z,8.63
2023-05-10T09:54:16.318Z,8.57
2023-05-10T09:56:43.943Z,7.97
2023-05-10T09:59:13.577Z,7.93
2023-05-10T10:01:41.657Z,7.70
2023-05-10T10:04:11.156Z,8.50
2023-05-10T10:06:39.828Z,8.07
2023-05-10T10:09:08.471Z,8.88
2023-05-10T10:11:37.495Z,8.60
2023-05-10T10:14:05.718Z,7.43
2023-05-10T10:16:33.753Z,7.63
2023-05-10T10:19:02.022Z,7.38
2023-05-10T10:21:29.566Z,7.70
2023-05-10T10:23:56.980Z,7.40
2023-05-10T10:26:24.984Z,6.60
2023-05-10T10:29:13.912Z,7.80
2023-05-10T10:32:09.547Z,7.53
2023-05-10T10:34:36.883Z,7.10
2023-05-10T10:37:08.033Z,7.00
2023-05-10T10:39:37.665Z,6.70
2023-05-10T10:42:05.974Z,6.68
2023-05-10T10:44:35.996Z,6.10
2023-05-10T10:47:11.002Z,5.95
2023-05-10T10:49:41.053Z,5.73
2023-05-10T10:52:34.576Z,5.18
2023-05-10T10:55:23.236Z,5.75
2023-05-10T10:57:52.831Z,4.82
2023-05-10T11:00:34.432Z,5.10
2023-05-10T11:03:19.944Z,4.93
2023-05-10T11:05:54.013Z,4.90
2023-05-10T11:08:30.654Z,4.55
2023-05-10T11:11:00.871Z,4.55
2023-05-10T11:13:34.117Z,4.60
2023-05-10T11:16:12.092Z,4.60
2023-05-10T11:18:39.586Z,4.90
2023-05-10T11:21:11.438Z,4.55
2023-05-10T11:23:41.362Z,4.47
2023-05-10T11:26:12.370Z,18.45
2023-05-10T11:28:47.291Z,5.38
2023-05-10T11:31:21.819Z,5.32
2023-05-10T11:33:52.307Z,5.60
2023-05-10T11:36:34.375Z,5.57
2023-05-10T11:39:01.499Z,6.78
2023-05-10T11:41:31.347Z,5.72
2023-05-10T11:43:59.698Z,6.45
2023-05-10T11:46:29.256Z,9.02
2023-05-10T11:49:02.705Z,6.00
2023-05-10T11:51:29.819Z,5.82
2023-05-10T11:53:58.053Z,5.95
2023-05-10T11:56:27.153Z,5.82
2023-05-10T11:58:57.699Z,6.07
2023-05-10T12:01:28.692Z,6.43
2023-05-10T12:04:00.481Z,6.13
2023-05-10T12:06:32.973Z,5.55
2023-05-10T12:09:00.195Z,6.03
2023-05-10T12:11:28.978Z,6.05
2023-05-10T12:13:57.392Z,5.90
2023-05-10T12:16:27.930Z,6.00
2023-05-10T12:18:58.853Z,7.07
2023-05-10T12:21:27.129Z,5.85
2023-05-10T12:23:58.082Z,5.78
2023-05-10T12:26:30.085Z,6.47
2023-05-10T12:29:16.990Z,6.30
2023-05-10T12:31:55.771Z,6.30
2023-05-10T12:34:33.686Z,6.15
2023-05-10T12:37:02.171Z,6.53
2023-05-10T12:39:44.823Z,6.72
2023-05-10T12:42:12.270Z,6.60
2023-05-10T12:44:40.689Z,7.75
2023-05-10T12:47:08.036Z,8.38
2023-05-10T12:49:35.252Z,8.20
2023-05-10T12:52:02.581Z,8.20
2023-05-10T12:54:29.548Z,7.55
2023-05-10T12:56:56.483Z,7.40
2023-05-10T12:59:23.953Z,7.10
2023-05-10T13:01:51.211Z,7.38
2023-05-10T13:04:18.256Z,7.47
2023-05-10T13:06:45.465Z,7.95
2023-05-10T13:09:12.464Z,9.45
2023-05-10T13:11:39.616Z,9.73
2023-05-10T13:14:06.588Z,10.10
2023-05-10T13:16:33.986Z,10.45
2023-05-10T13:19:01.238Z,10.02
2023-05-10T13:21:28.873Z,10.88
2023-05-10T13:23:56.521Z,10.50
2023-05-10T13:26:23.590Z,11.80
2023-05-10T13:28:52.456Z,10.52
2023-05-10T13:31:19.631Z,10.55
2023-05-10T13:33:46.715Z,9.93
2023-05-10T13:36:13.769Z,9.35
2023-05-10T13:38:40.722Z,9.82
2023-05-10T13:41:07.802Z,10.13
2023-05-10T13:43:34.908Z,10.27
2023-05-10T13:46:02.860Z,9.52
2023-05-10T13:48:30.031Z,10.10
2023-05-10T13:50:57.073Z,10.10
2023-05-10T13:53:24.276Z,9.63
2023-05-10T13:55:51.344Z,10.15
2023-05-10T13:58:18.348Z,10.52
2023-05-10T14:00:45.300Z,10.10
2023-05-10T14:03:12.630Z,9.57
2023-05-10T14:05:39.878Z,9.55
2023-05-10T14:08:07.246Z,9.30
2023-05-10T14:10:34.235Z,9.85
2023-05-10T14:13:01.275Z,10.20
2023-05-10T14:15:28.336Z,9.95
2023-05-10T14:17:55.523Z,9.23
2023-05-10T14:20:22.668Z,9.43
2023-05-10T14:22:49.882Z,10.15
2023-05-10T14:25:17.075Z,10.63
2023-05-10T14:27:44.310Z,9.98
2023-05-10T14:30:12.292Z,11.00
2023-05-10T14:32:39.448Z,10.45
2023-05-10T14:35:07.248Z,10.75
2023-05-10T14:37:34.521Z,10.30
2023-05-10T14:40:01.799Z,11.20
2023-05-10T14:42:29.482Z,10.55
2023-05-10T14:44:56.582Z,9.98
2023-05-10T14:47:23.796Z,9.98
2023-05-10T14:49:51.176Z,9.35
2023-05-10T14:52:18.410Z,9.27
2023-05-10T14:54:45.434Z,9.35
2023-05-10T14:57:12.500Z,9.63
2023-05-10T14:59:39.555Z,9.98
2023-05-10T15:02:09.160Z,9.60
2023-05-10T15:04:36.756Z,11.15
2023-05-10T15:07:05.111Z,10.88
2023-05-10T15:09:32.067Z,11.27
2023-05-10T15:11:59.028Z,9.32
2023-05-10T15:14:26.205Z,10.40
2023-05-10T15:16:53.350Z,9.90
2023-05-10T15:19:21.308Z,9.93
2023-05-10T15:21:48.492Z,9.35
2023-05-10T15:24:15.642Z,9.77
2023-05-10T15:26:42.788Z,9.52
2023-05-10T15:29:10.522Z,9.43
2023-05-10T15:31:37.642Z,9.48
2023-05-10T15:34:04.742Z,9.63
2023-05-10T15:36:33.034Z,9.70
2023-05-10T15:39:00.134Z,9.30
2023-05-10T15:41:27.744Z,9.35
2023-05-10T15:43:55.049Z,9.82
2023-05-10T15:46:22.671Z,9.18
2023-05-10T15:48:49.734Z,9.35
2023-05-10T15:51:16.730Z,9.73
2023-05-10T15:53:56.475Z,9.13
2023-05-10T15:56:31.122Z,9.23
2023-05-10T15:58:58.197Z,10.05
2023-05-10T16:01:25.772Z,9.68
2023-05-10T16:03:52.948Z,9.98
2023-05-10T16:06:20.057Z,9.20
2023-05-10T16:08:47.177Z,9.48
2023-05-10T16:11:14.360Z,9.90
2023-05-10T16:13:41.639Z,9.40
2023-05-10T16:16:09.214Z,10.02
2023-05-10T16:18:36.473Z,9.48
2023-05-10T16:21:03.834Z,9.68
2023-05-10T16:23:30.966Z,9.90
2023-05-10T16:25:58.391Z,10.18
2023-05-10T16:28:25.528Z,9.73
2023-05-10T16:30:52.695Z,9.85
2023-05-10T16:33:20.026Z,9.82
2023-05-10T16:35:47.245Z,8.73
2023-05-10T16:38:15.061Z,8.57
2023-05-10T16:40:42.095Z,8.60
2023-05-10T16:43:09.303Z,6.50
2023-05-10T16:45:36.438Z,5.63
2023-05-10T16:48:03.907Z,5.47
2023-05-10T16:50:30.962Z,6.18
2023-05-10T16:52:57.995Z,5.82
2023-05-10T16:55:26.288Z,6.40
2023-05-10T16:57:59.628Z,6.28
2023-05-10T17:00:30.082Z,6.10
2023-05-10T17:02:57.500Z,6.00
2023-05-10T17:05:24.865Z,6.38
2023-05-10T17:07:51.930Z,6.85
2023-05-10T17:10:19.090Z,6.72
2023-05-10T17:12:46.364Z,6.70
2023-05-10T17:15:13.633Z,6.38
2023-05-10T17:17:41.075Z,7.28
2023-05-10T17:20:09.102Z,7.65
2023-05-10T17:22:36.236Z,6.97
2023-05-10T17:25:04.229Z,6.90
2023-05-10T17:27:31.502Z,7.78
2023-05-10T17:29:59.137Z,7.47
2023-05-10T17:32:26.495Z,8.30
2023-05-10T17:34:53.720Z,8.45
2023-05-10T17:37:20.801Z,8.60
2023-05-10T17:39:47.938Z,9.45
2023-05-10T17:42:17.556Z,9.45
2023-05-10T17:44:44.891Z,8.77
2023-05-10T17:47:12.080Z,8.93
2023-05-10T17:49:39.825Z,9.25
2023-05-10T17:52:07.372Z,8.85
2023-05-10T17:54:34.624Z,9.25
2023-05-10T17:57:02.099Z,8.85
2023-05-10T17:59:29.329Z,8.23
2023-05-10T18:01:56.553Z,8.15
2023-05-10T18:04:23.852Z,8.52
2023-05-10T18:06:51.176Z,8.40
2023-05-10T18:09:18.293Z,8.38
2023-05-10T18:11:45.564Z,7.78
2023-05-10T18:14:12.734Z,7.90
2023-05-10T18:16:39.866Z,7.95
2023-05-10T18:19:07.049Z,7.95
2023-05-10T18:21:34.202Z,7.95
2023-05-10T18:24:01.825Z,7.38
2023-05-10T18:26:28.938Z,7.75
2023-05-10T18:28:55.940Z,7.47
2023-05-10T18:31:23.683Z,7.50
2023-05-10T18:33:51.046Z,8.13
2023-05-10T18:36:18.341Z,7.45
2023-05-10T18:38:45.759Z,7.30
2023-05-10T18:41:14.446Z,7.85
2023-05-10T18:43:42.687Z,7.97
2023-05-10T18:46:09.675Z,9.00
2023-05-10T18:48:36.800Z,6.70
2023-05-10T18:51:04.283Z,7.07
2023-05-10T18:53:32.507Z,6.82
2023-05-10T18:56:00.224Z,7.22
2023-05-10T18:58:28.774Z,6.72
2023-05-10T19:00:55.961Z,6.60
2023-05-10T19:03:22.980Z,7.22
2023-05-10T19:05:49.957Z,9.13
2023-05-10T19:08:17.328Z,8.18
2023-05-10T19:10:45.849Z,9.23
2023-05-10T19:13:15.016Z,8.10
2023-05-10T19:15:42.160Z,9.00
2023-05-10T19:18:09.556Z,7.88
2023-05-10T19:20:38.156Z,7.30
2023-05-10T19:23:10.210Z,5.70
2023-05-10T19:25:39.325Z,5.65
2023-05-10T19:28:06.835Z,6.25
2023-05-10T19:30:34.070Z,6.07
2023-05-10T19:33:04.062Z,5.82
2023-05-10T19:35:31.287Z,6.25
2023-05-10T19:37:58.354Z,6.75
2023-05-10T19:40:25.533Z,6.75
2023-05-10T19:42:53.713Z,6.85
2023-05-10T19:45:21.491Z,6.72
2023-05-10T19:47:48.721Z,7.43
2023-05-10T19:50:18.255Z,8.25
2023-05-10T19:52:46.148Z,9.23
2023-05-10T19:55:30.760Z,8.48
2023-05-10T19:58:00.507Z,9.02
2023-05-10T20:00:27.739Z,8.98
2023-05-10T20:02:55.421Z,8.75
2023-05-10T20:05:22.771Z,7.88
2023-05-10T20:07:50.361Z,8.68
2023-05-10T20:10:18.241Z,8.68
2023-05-10T20:12:53.800Z,9.05
2023-05-10T20:15:23.236Z,9.70
2023-05-10T20:17:52.707Z,9.77
2023-05-10T20:20:20.854Z,9.20
2023-05-10T20:22:48.803Z,9.27
2023-05-10T20:25:17.775Z,8.95
2023-05-10T20:27:45.232Z,9.02
2023-05-10T20:30:13.240Z,8.77
2023-05-10T20:32:40.427Z,9.07
2023-05-10T20:35:07.964Z,8.90
2023-05-10T20:37:35.500Z,9.57
2023-05-10T20:40:02.691Z,9.73
2023-05-10T20:42:30.086Z,9.75
2023-05-10T20:44:58.046Z,9.75
2023-05-10T20:47:25.251Z,10.30
2023-05-10T20:49:52.482Z,10.40
2023-05-10T20:52:19.666Z,11.00
2023-05-10T20:54:46.825Z,10.60
2023-05-10T20:57:14.496Z,11.02
2023-05-10T20:59:41.920Z,11.05
2023-05-10T21:02:09.075Z,10.90
2023-05-10T21:04:36.297Z,11.20
2023-05-10T21:07:03.299Z,11.38
2023-05-10T21:09:30.435Z,10.77
2023-05-10T21:11:58.242Z,10.88
2023-05-10T21:14:25.595Z,11.98
2023-05-10T21:16:52.798Z,12.30
2023-05-10T21:19:19.939Z,11.60
2023-05-10T21:21:47.914Z,11.85
2023-05-10T21:24:15.019Z,12.52
2023-05-10T21:26:42.380Z,11.85
2023-05-10T21:29:09.481Z,11.73
2023-05-10T21:31:36.475Z,11.68
2023-05-10T21:34:03.629Z,12.82
2023-05-10T21:36:30.580Z,12.45
2023-05-10T21:38:57.812Z,12.57
2023-05-10T21:41:24.897Z,12.65
2023-05-10T21:43:51.920Z,12.02
2023-05-10T21:46:19.533Z,11.98
2023-05-10T21:48:46.675Z,12.57
2023-05-10T21:51:14.884Z,11.48
2023-05-10T21:53:41.983Z,11.68
2023-05-10T21:56:09.079Z,12.15
2023-05-10T21:58:36.573Z,13.35
2023-05-10T22:01:03.828Z,11.88
2023-05-10T22:03:31.157Z,12.15
2023-05-10T22:05:58.225Z,12.00
2023-05-10T22:08:25.653Z,12.05
2023-05-10T22:10:52.756Z,12.23
2023-05-10T22:13:19.823Z,11.23
2023-05-10T22:15:46.949Z,12.40
2023-05-10T22:18:13.997Z,12.02
2023-05-10T22:20:41.146Z,12.18
2023-05-10T22:23:08.206Z,12.13
2023-05-10T22:25:35.422Z,12.82
2023-05-10T22:28:02.622Z,12.00
2023-05-10T22:30:31.507Z,12.63
2023-05-10T22:33:00.326Z,12.98
2023-05-10T22:35:27.457Z,13.13
2023-05-10T22:37:54.617Z,12.57
2023-05-10T22:40:22.074Z,11.95
2023-05-10T22:42:49.230Z,11.93
2023-05-10T22:45:16.229Z,12.75
2023-05-10T22:47:43.260Z,13.02
2023-05-10T22:50:10.812Z,12.30
2023-05-10T22:52:39.351Z,12.63
2023-05-10T22:55:07.354Z,13.30
2023-05-10T22:57:34.599Z,13.10
2023-05-10T23:00:03.324Z,13.57
2023-05-10T23:02:31.235Z,13.85
2023-05-10T23:04:58.286Z,14.10
2023-05-10T23:07:25.520Z,14.00
2023-05-10T23:09:52.561Z,15.35
2023-05-10T23:12:19.625Z,14.18
2023-05-10T23:14:47.630Z,14.90
2023-05-10T23:17:14.788Z,14.25
2023-05-10T23:19:42.010Z,15.25
2023-05-10T23:22:09.987Z,14.85
2023-05-10T23:24:37.117Z,15.52
2023-05-10T23:27:04.590Z,14.75
2023-05-10T23:29:32.525Z,15.55
2023-05-10T23:31:59.526Z,14.93
2023-05-10T23:34:26.549Z,15.73
2023-05-10T23:36:53.661Z,16.02
2023-05-10T23:39:20.856Z,16.00
2023-05-10T23:41:47.953Z,16.40
2023-05-10T23:44:15.109Z,16.75
2023-05-10T23:46:42.245Z,17.17
2023-05-10T23:49:09.423Z,17.55
2023-05-10T23:51:36.585Z,17.23
2023-05-10T23:54:03.820Z,18.30
2023-05-10T23:56:31.035Z,17.90
2023-05-10T23:58:58.064Z,17.30
